createdAt,value
2023-11-16T00:00:17.423Z,2.200
2023-11-16T00:01:17.449Z,2.800
2023-11-16T00:02:17.505Z,2.600
2023-11-16T00:03:17.809Z,2.700
2023-11-16T00:04:17.984Z,2.500
2023-11-16T00:05:16.775Z,2.700
2023-11-16T00:06:17.703Z,2.500
2023-11-16T00:07:17.541Z,2.700
2023-11-16T00:08:17.340Z,2.700
2023-11-16T00:09:17.334Z,2.700
2023-11-16T00:10:17.033Z,2.600
2023-11-16T00:11:17.156Z,2.800
2023-11-16T00:12:17.311Z,2.500
2023-11-16T00:13:17.588Z,3.000
2023-11-16T00:14:17.421Z,2.700
2023-11-16T00:15:17.297Z,3.000
2023-11-16T00:16:17.387Z,2.900
2023-11-16T00:18:17.375Z,2.800
2023-11-16T00:19:17.174Z,2.900
2023-11-16T00:21:17.727Z,2.600
2023-11-16T00:22:17.517Z,3.100
2023-11-16T00:24:17.137Z,2.600
2023-11-16T00:25:16.845Z,3.200
2023-11-16T00:26:17.633Z,3.000
2023-11-16T00:27:17.451Z,2.700
2023-11-16T00:28:17.114Z,3.100
2023-11-16T00:29:17.010Z,3.100
2023-11-16T00:30:16.796Z,3.400
2023-11-16T00:31:17.836Z,2.700
2023-11-16T00:32:17.872Z,2.500
2023-11-16T00:33:17.914Z,2.500
2023-11-16T00:34:16.647Z,2.900
2023-11-16T00:35:17.371Z,2.600
2023-11-16T00:36:17.220Z,2.700
2023-11-16T00:37:16.965Z,3.000
2023-11-16T00:40:17.566Z,2.600
2023-11-16T00:41:17.349Z,3.200
2023-11-16T00:43:17.111Z,2.700
2023-11-16T00:44:17.034Z,3.100
2023-11-16T00:45:17.723Z,2.600
2023-11-16T00:46:18.063Z,2.900
2023-11-16T00:47:17.035Z,2.900
2023-11-16T00:48:17.487Z,2.500
2023-11-16T00:50:17.215Z,2.600
2023-11-16T00:51:17.279Z,2.900
2023-11-16T00:52:17.015Z,2.900
2023-11-16T00:53:16.802Z,3.000
2023-11-16T00:54:17.803Z,2.800
2023-11-16T00:56:17.427Z,2.800
2023-11-16T00:57:17.188Z,2.400
2023-11-16T00:58:16.977Z,2.400
2023-11-16T00:59:16.806Z,2.700
2023-11-16T01:00:18.196Z,2.400
2023-11-16T01:01:17.437Z,2.700
2023-11-16T01:02:17.371Z,2.300
2023-11-16T01:03:18.047Z,2.600
2023-11-16T01:04:17.063Z,2.900
2023-11-16T01:05:16.822Z,2.500
2023-11-16T01:06:17.714Z,2.200
2023-11-16T01:07:17.378Z,2.300
2023-11-16T01:09:17.135Z,2.700
2023-11-16T01:12:17.660Z,2.000
2023-11-16T01:13:17.734Z,2.500
2023-11-16T01:14:17.386Z,2.100
2023-11-16T01:15:17.259Z,2.500
2023-11-16T01:16:17.293Z,2.400
2023-11-16T01:17:17.202Z,2.400
2023-11-16T01:18:17.776Z,2.300
2023-11-16T01:20:17.338Z,2.600
2023-11-16T01:21:17.213Z,2.700
2023-11-16T01:22:17.346Z,2.500
2023-11-16T01:23:17.558Z,2.400
2023-11-16T01:24:19.296Z,2.500
2023-11-16T01:25:17.214Z,2.900
2023-11-16T01:26:17.205Z,2.500
2023-11-16T01:27:17.433Z,2.400
2023-11-16T01:28:17.793Z,2.300
2023-11-16T01:29:17.787Z,2.000
2023-11-16T01:30:17.721Z,2.300
2023-11-16T01:31:17.807Z,2.300
2023-11-16T01:32:17.653Z,2.300
2023-11-16T01:33:17.921Z,2.500
2023-11-16T01:34:17.601Z,2.300
2023-11-16T01:35:17.484Z,2.500
2023-11-16T01:37:17.219Z,2.800
2023-11-16T01:39:17.933Z,2.500
2023-11-16T01:40:17.767Z,2.800
2023-11-16T01:41:17.304Z,2.500
2023-11-16T01:42:16.987Z,2.400
2023-11-16T01:44:17.303Z,2.400
2023-11-16T01:45:17.098Z,2.500
2023-11-16T01:46:16.820Z,2.700
2023-11-16T01:47:16.592Z,2.400
2023-11-16T01:48:17.647Z,2.400
2023-11-16T01:49:17.452Z,2.400
2023-11-16T01:52:16.973Z,2.800
2023-11-16T01:53:17.898Z,2.600
2023-11-16T01:54:17.673Z,2.900
2023-11-16T01:55:17.298Z,2.600
2023-11-16T01:56:16.734Z,2.900
2023-11-16T01:57:17.597Z,2.900
2023-11-16T01:58:17.208Z,2.700
2023-11-16T02:01:17.569Z,2.600
2023-11-16T02:02:17.632Z,3.100
2023-11-16T02:03:17.905Z,2.600
2023-11-16T02:04:22.209Z,2.900
2023-11-16T02:05:17.000Z,2.800
2023-11-16T02:06:17.981Z,2.800
2023-11-16T02:07:16.608Z,2.800
2023-11-16T02:08:17.569Z,2.900
2023-11-16T02:10:16.904Z,2.700
2023-11-16T02:11:21.006Z,2.700
2023-11-16T02:12:16.706Z,3.000
2023-11-16T02:13:17.200Z,2.500
2023-11-16T02:14:16.788Z,2.800
2023-11-16T02:15:17.441Z,2.600
2023-11-16T02:16:17.262Z,2.600
2023-11-16T02:17:16.851Z,2.200
2023-11-16T02:18:17.633Z,2.500
2023-11-16T02:19:17.170Z,2.600
2023-11-16T02:20:16.694Z,2.400
2023-11-16T02:21:17.269Z,2.600
2023-11-16T02:24:17.061Z,2.200
2023-11-16T02:25:16.535Z,2.800
2023-11-16T02:26:17.355Z,2.300
2023-11-16T02:27:17.115Z,2.300
2023-11-16T02:29:17.228Z,2.300
2023-11-16T02:30:16.984Z,2.200
2023-11-16T02:31:16.567Z,2.300
2023-11-16T02:32:17.323Z,2.600
2023-11-16T02:33:17.446Z,2.600
2023-11-16T02:34:17.521Z,2.200
2023-11-16T02:35:17.027Z,2.300
2023-11-16T02:36:17.708Z,2.500
2023-11-16T02:37:17.291Z,2.100
2023-11-16T02:38:16.994Z,2.300
2023-11-16T02:39:17.892Z,2.700
2023-11-16T02:40:16.516Z,2.500
2023-11-16T02:41:16.966Z,2.100
2023-11-16T02:42:17.635Z,1.900
2023-11-16T02:44:16.912Z,2.500
2023-11-16T02:45:17.564Z,2.300
2023-11-16T02:46:17.131Z,2.200
2023-11-16T02:47:16.738Z,2.600
2023-11-16T02:48:18.199Z,2.300
2023-11-16T02:49:16.983Z,2.400
2023-11-16T02:50:16.553Z,2.400
2023-11-16T02:51:17.276Z,2.200
2023-11-16T02:52:16.924Z,1.800
2023-11-16T02:53:17.550Z,2.300
2023-11-16T02:54:17.152Z,2.400
2023-11-16T02:55:16.774Z,2.200
2023-11-16T02:56:17.502Z,2.400
2023-11-16T02:57:17.254Z,2.200
2023-11-16T02:58:16.879Z,2.200
2023-11-16T02:59:17.423Z,2.400
2023-11-16T03:00:17.400Z,1.900
2023-11-16T03:01:17.563Z,1.700
2023-11-16T03:03:17.052Z,2.300
2023-11-16T03:04:17.191Z,2.300
2023-11-16T03:05:16.782Z,2.400
2023-11-16T03:06:17.537Z,2.400
2023-11-16T03:07:33.432Z,2.300
2023-11-16T03:08:17.172Z,2.500
2023-11-16T03:09:16.964Z,2.100
2023-11-16T03:10:17.521Z,2.200
2023-11-16T03:11:17.028Z,2.500
2023-11-16T03:12:16.558Z,2.400
2023-11-16T03:13:17.292Z,2.100
2023-11-16T03:14:16.845Z,2.100
2023-11-16T03:16:17.406Z,2.300
2023-11-16T03:17:16.973Z,2.300
2023-11-16T03:18:17.838Z,2.500
2023-11-16T03:19:17.397Z,2.600
2023-11-16T03:21:17.548Z,2.700
2023-11-16T03:22:17.132Z,2.700
2023-11-16T03:23:16.621Z,2.500
2023-11-16T03:24:17.467Z,2.300
2023-11-16T03:25:16.954Z,2.800
2023-11-16T03:26:17.476Z,2.600
2023-11-16T03:27:17.165Z,2.400
2023-11-16T03:28:16.706Z,3.100
2023-11-16T03:29:17.347Z,2.700
2023-11-16T03:30:17.269Z,2.900
2023-11-16T03:31:17.293Z,2.800
2023-11-16T03:32:16.816Z,3.000
2023-11-16T03:33:18.116Z,3.100
2023-11-16T03:35:17.497Z,2.800
2023-11-16T03:36:17.353Z,3.200
2023-11-16T03:37:16.861Z,3.000
2023-11-16T03:38:17.406Z,2.800
2023-11-16T03:39:17.152Z,3.200
2023-11-16T03:40:16.818Z,3.300
2023-11-16T03:41:17.375Z,3.000
2023-11-16T03:42:16.946Z,3.000
2023-11-16T03:43:17.584Z,2.800
2023-11-16T03:44:17.107Z,2.800
2023-11-16T03:47:17.252Z,2.700
2023-11-16T03:48:17.401Z,2.800
2023-11-16T03:49:17.425Z,3.200
2023-11-16T03:50:16.988Z,3.100
2023-11-16T03:51:16.702Z,2.800
2023-11-16T03:52:17.502Z,3.400
2023-11-16T03:53:16.967Z,3.200
2023-11-16T03:54:17.697Z,3.000
2023-11-16T03:55:17.447Z,2.900
2023-11-16T03:56:17.052Z,3.100
2023-11-16T03:59:16.980Z,3.000
2023-11-16T04:00:17.992Z,2.900
2023-11-16T04:01:16.590Z,2.700
2023-11-16T04:02:17.179Z,3.300
2023-11-16T04:03:17.320Z,2.800
2023-11-16T04:04:17.769Z,2.800
2023-11-16T04:05:17.537Z,3.000
2023-11-16T04:07:16.828Z,3.000
2023-11-16T04:08:17.401Z,2.800
2023-11-16T04:09:17.110Z,3.300
2023-11-16T04:10:17.515Z,3.000
2023-11-16T04:11:17.005Z,3.100
2023-11-16T04:12:16.709Z,3.300
2023-11-16T04:13:17.357Z,3.000
2023-11-16T04:14:16.856Z,3.000
2023-11-16T04:15:18.278Z,3.400
2023-11-16T04:16:16.858Z,3.600
2023-11-16T04:17:17.563Z,3.500
2023-11-16T04:18:17.452Z,3.700
2023-11-16T04:19:17.605Z,3.300
2023-11-16T04:20:16.821Z,3.500
2023-11-16T04:21:17.484Z,3.600
2023-11-16T04:22:17.154Z,3.800
2023-11-16T04:23:16.577Z,3.600
2023-11-16T04:24:17.287Z,3.600
2023-11-16T04:25:17.194Z,3.900
2023-11-16T04:26:16.804Z,3.600
2023-11-16T04:27:17.390Z,3.100
2023-11-16T04:29:16.576Z,4.200
2023-11-16T04:30:17.484Z,3.600
2023-11-16T04:31:17.256Z,3.600
2023-11-16T04:32:17.044Z,4.000
2023-11-16T04:33:16.757Z,3.800
2023-11-16T04:34:17.472Z,3.900
2023-11-16T04:35:17.083Z,3.500
2023-11-16T04:36:16.748Z,3.500
2023-11-16T04:37:17.417Z,3.700
2023-11-16T04:41:16.729Z,3.400
2023-11-16T04:42:17.484Z,3.600
2023-11-16T04:43:17.316Z,3.700
2023-11-16T04:44:16.871Z,3.800
2023-11-16T04:45:17.602Z,3.900
2023-11-16T04:47:16.692Z,3.500
2023-11-16T04:48:17.956Z,4.000
2023-11-16T04:49:18.278Z,4.000
2023-11-16T04:50:17.149Z,3.700
2023-11-16T04:51:16.899Z,3.400
2023-11-16T04:52:17.553Z,3.900
2023-11-16T04:53:17.090Z,3.700
2023-11-16T04:54:16.857Z,3.800
2023-11-16T04:55:22.292Z,3.300
2023-11-16T04:56:17.258Z,3.300
2023-11-16T04:58:17.373Z,3.200
2023-11-16T04:59:16.864Z,3.400
2023-11-16T05:00:18.122Z,3.600
2023-11-16T05:01:16.908Z,3.300
2023-11-16T05:02:17.429Z,3.600
2023-11-16T05:03:17.836Z,3.800
2023-11-16T05:04:17.123Z,3.600
2023-11-16T05:07:16.596Z,3.200
2023-11-16T05:08:17.140Z,3.400
2023-11-16T05:09:16.759Z,3.700
2023-11-16T05:10:17.819Z,3.000
2023-11-16T05:11:16.589Z,3.400
2023-11-16T05:12:17.368Z,3.300
2023-11-16T05:13:16.950Z,2.900
2023-11-16T05:14:17.491Z,3.500
2023-11-16T05:15:19.869Z,3.400
2023-11-16T05:17:17.105Z,3.600
2023-11-16T05:18:17.002Z,3.500
2023-11-16T05:19:16.576Z,3.800
2023-11-16T05:20:17.134Z,3.700
2023-11-16T05:21:21.128Z,3.800
2023-11-16T05:22:16.700Z,3.900
2023-11-16T05:23:17.199Z,3.800
2023-11-16T05:24:16.875Z,3.100
2023-11-16T05:25:17.563Z,4.000
2023-11-16T05:26:17.140Z,4.000
2023-11-16T05:27:16.723Z,3.900
2023-11-16T05:28:17.321Z,4.000
2023-11-16T05:29:16.807Z,4.700
2023-11-16T05:30:17.507Z,3.600
2023-11-16T05:33:17.666Z,3.900
2023-11-16T05:34:17.337Z,4.500
2023-11-16T05:37:17.109Z,6.400
2023-11-16T05:38:16.609Z,5.400
2023-11-16T05:39:17.194Z,4.600
2023-11-16T05:40:16.865Z,5.300
2023-11-16T05:41:17.465Z,4.800
2023-11-16T05:42:17.080Z,4.300
2023-11-16T05:43:16.616Z,3.800
2023-11-16T05:44:17.143Z,3.800
2023-11-16T05:45:17.100Z,4.000
2023-11-16T05:46:17.129Z,3.700
2023-11-16T05:47:16.697Z,4.000
2023-11-16T05:48:17.609Z,3.600
2023-11-16T05:49:17.233Z,3.200
2023-11-16T05:50:16.728Z,3.800
2023-11-16T05:51:17.733Z,3.800
2023-11-16T05:52:17.372Z,3.300
2023-11-16T05:55:17.345Z,3.000
2023-11-16T05:56:16.825Z,3.900
2023-11-16T05:57:17.522Z,3.400
2023-11-16T05:58:17.081Z,3.500
2023-11-16T05:59:16.650Z,3.100
2023-11-16T06:00:17.516Z,3.500
2023-11-16T06:01:17.373Z,3.100
2023-11-16T06:02:17.018Z,3.400
2023-11-16T06:04:17.076Z,3.200
2023-11-16T06:05:21.764Z,3.100
2023-11-16T06:07:17.084Z,3.100
2023-11-16T06:09:17.442Z,3.100
2023-11-16T06:10:17.011Z,3.700
2023-11-16T06:11:16.563Z,3.400
2023-11-16T06:12:17.253Z,3.000
2023-11-16T06:13:16.760Z,3.500
2023-11-16T06:14:17.381Z,3.100
2023-11-16T06:15:17.124Z,3.000
2023-11-16T06:16:16.913Z,3.200
2023-11-16T06:17:17.480Z,3.000
2023-11-16T06:18:17.505Z,3.200
2023-11-16T06:19:17.022Z,2.900
2023-11-16T06:20:17.537Z,3.000
2023-11-16T06:21:17.175Z,2.900
2023-11-16T06:22:16.676Z,3.200
2023-11-16T06:23:17.152Z,2.900
2023-11-16T06:24:17.160Z,3.000
2023-11-16T06:25:17.266Z,3.400
2023-11-16T06:26:16.810Z,2.800
2023-11-16T06:27:17.401Z,2.600
2023-11-16T06:29:16.731Z,2.800
2023-11-16T06:30:17.828Z,3.200
2023-11-16T06:32:17.098Z,3.100
2023-11-16T06:33:16.989Z,2.900
2023-11-16T06:34:18.537Z,2.500
2023-11-16T06:36:17.053Z,2.600
2023-11-16T06:37:16.637Z,2.400
2023-11-16T06:38:17.139Z,2.700
2023-11-16T06:39:16.811Z,2.400
2023-11-16T06:40:17.493Z,2.400
2023-11-16T06:41:17.015Z,2.600
2023-11-16T06:42:16.654Z,2.600
2023-11-16T06:43:17.210Z,2.400
2023-11-16T06:44:16.707Z,2.800
2023-11-16T06:45:17.617Z,2.200
2023-11-16T06:46:17.313Z,2.700
2023-11-16T06:47:16.868Z,2.300
2023-11-16T06:48:16.808Z,2.700
2023-11-16T06:49:17.460Z,2.800
2023-11-16T06:50:16.942Z,2.700
2023-11-16T06:51:17.688Z,2.300
2023-11-16T06:52:17.244Z,2.400
2023-11-16T06:53:16.735Z,2.700
2023-11-16T06:54:17.415Z,2.300
2023-11-16T06:55:17.271Z,2.700
2023-11-16T06:56:16.839Z,2.500
2023-11-16T06:57:17.664Z,2.500
2023-11-16T06:58:17.226Z,2.000
2023-11-16T06:59:16.976Z,2.400
2023-11-16T07:00:16.965Z,2.200
2023-11-16T07:02:17.496Z,2.200
2023-11-16T07:03:17.613Z,2.900
2023-11-16T07:04:17.912Z,2.400
2023-11-16T07:05:16.563Z,2.400
2023-11-16T07:06:17.216Z,2.500
2023-11-16T07:07:16.832Z,2.600
2023-11-16T07:08:17.397Z,2.300
2023-11-16T07:09:17.060Z,2.500
2023-11-16T07:10:16.713Z,2.500
2023-11-16T07:11:17.270Z,2.300
2023-11-16T07:12:17.056Z,2.500
2023-11-16T07:14:17.094Z,2.300
2023-11-16T07:15:17.105Z,2.600
2023-11-16T07:16:16.714Z,2.500
2023-11-16T07:17:18.040Z,2.600
2023-11-16T07:18:18.620Z,2.300
2023-11-16T07:19:17.626Z,2.800
2023-11-16T07:20:17.356Z,2.600
2023-11-16T07:21:16.982Z,2.500
2023-11-16T07:22:16.585Z,2.700
2023-11-16T07:23:17.156Z,2.600
2023-11-16T07:26:17.317Z,2.800
2023-11-16T07:27:17.163Z,2.900
2023-11-16T07:28:16.811Z,3.000
2023-11-16T07:29:17.351Z,3.000
2023-11-16T07:30:17.172Z,2.800
2023-11-16T07:31:17.080Z,2.900
2023-11-16T07:34:17.265Z,3.000
2023-11-16T07:35:16.805Z,2.800
2023-11-16T07:36:17.482Z,3.200
2023-11-16T07:37:17.190Z,3.500
2023-11-16T07:39:17.513Z,2.900
2023-11-16T07:40:17.398Z,3.300
2023-11-16T07:42:17.072Z,3.100
2023-11-16T07:43:16.588Z,3.300
2023-11-16T07:44:17.201Z,3.100
2023-11-16T07:45:16.900Z,3.300
2023-11-16T07:46:17.587Z,2.900
2023-11-16T07:47:17.132Z,2.900
2023-11-16T07:48:16.919Z,3.400
2023-11-16T07:49:17.727Z,3.200
2023-11-16T07:50:17.508Z,3.400
2023-11-16T07:51:17.367Z,3.700
2023-11-16T07:52:17.413Z,3.300
2023-11-16T07:53:17.481Z,3.400
2023-11-16T07:54:17.385Z,3.400
2023-11-16T07:55:17.003Z,3.400
2023-11-16T07:56:16.556Z,3.600
2023-11-16T07:57:17.337Z,3.100
2023-11-16T07:58:17.081Z,3.500
2023-11-16T08:00:20.903Z,3.700
2023-11-16T08:01:16.452Z,3.500
2023-11-16T08:02:16.952Z,3.500
2023-11-16T08:03:18.623Z,3.700
2023-11-16T08:04:17.503Z,3.300
2023-11-16T08:05:18.076Z,3.700
2023-11-16T08:06:16.912Z,4.200
2023-11-16T08:07:16.512Z,3.900
2023-11-16T08:08:17.069Z,3.900
2023-11-16T08:09:19.548Z,4.000
2023-11-16T08:10:16.972Z,5.200
2023-11-16T08:11:17.620Z,5.000
2023-11-16T08:12:17.268Z,5.000
2023-11-16T08:13:16.806Z,5.000
2023-11-16T08:14:17.409Z,5.400
2023-11-16T08:15:17.199Z,5.100
2023-11-16T08:16:17.239Z,5.100
2023-11-16T08:17:17.008Z,4.300
2023-11-16T08:18:17.767Z,4.000
2023-11-16T08:19:17.403Z,4.800
2023-11-16T08:21:17.614Z,4.700
2023-11-16T08:22:17.138Z,4.000
2023-11-16T08:23:16.805Z,3.500
2023-11-16T08:24:17.376Z,4.000
2023-11-16T08:25:17.465Z,3.400
2023-11-16T08:26:18.290Z,3.600
2023-11-16T08:27:16.980Z,3.500
2023-11-16T08:28:16.716Z,3.100
2023-11-16T08:29:17.292Z,3.600
2023-11-16T08:30:16.916Z,3.600
2023-11-16T08:31:21.134Z,3.100
2023-11-16T08:32:16.788Z,3.300
2023-11-16T08:33:17.732Z,3.500
2023-11-16T08:34:17.428Z,3.400
2023-11-16T08:36:18.004Z,3.500
2023-11-16T08:37:16.787Z,3.900
2023-11-16T08:38:17.584Z,3.800
2023-11-16T08:39:17.217Z,4.200
2023-11-16T08:40:17.038Z,3.800
2023-11-16T08:41:16.628Z,3.700
2023-11-16T08:42:17.240Z,3.600
2023-11-16T08:43:16.956Z,3.400
2023-11-16T08:44:21.288Z,4.100
2023-11-16T08:45:17.382Z,3.800
2023-11-16T08:46:17.513Z,4.500
2023-11-16T08:48:18.089Z,4.200
2023-11-16T08:49:17.020Z,3.800
2023-11-16T08:50:16.537Z,4.300
2023-11-16T08:52:16.522Z,4.400
2023-11-16T08:53:17.574Z,4.500
2023-11-16T08:54:17.220Z,4.000
2023-11-16T08:55:16.846Z,4.000
2023-11-16T08:56:31.242Z,4.600
2023-11-16T08:58:17.359Z,4.900
2023-11-16T08:59:17.908Z,5.100
2023-11-16T09:00:17.554Z,5.000
2023-11-16T09:01:17.731Z,4.800
2023-11-16T09:02:20.958Z,5.100
2023-11-16T09:04:18.054Z,4.200
2023-11-16T09:05:17.311Z,5.100
2023-11-16T09:08:17.469Z,4.200
2023-11-16T09:09:17.337Z,4.500
2023-11-16T09:10:16.817Z,5.400
2023-11-16T09:11:17.371Z,4.200
2023-11-16T09:12:17.842Z,3.900
2023-11-16T09:14:17.188Z,4.600
2023-11-16T09:15:16.816Z,4.000
2023-11-16T09:16:17.455Z,4.600
2023-11-16T09:17:19.154Z,3.900
2023-11-16T09:18:19.492Z,3.900
2023-11-16T09:19:17.353Z,4.300
2023-11-16T09:20:16.984Z,4.200
2023-11-16T09:21:17.606Z,4.300
2023-11-16T09:22:17.203Z,3.800
2023-11-16T09:23:20.356Z,4.100
2023-11-16T09:24:16.938Z,3.800
2023-11-16T09:25:17.595Z,3.600
2023-11-16T09:27:17.064Z,4.200
2023-11-16T09:28:16.917Z,3.900
2023-11-16T09:29:20.393Z,3.400
2023-11-16T09:30:17.023Z,3.300
2023-11-16T09:31:16.892Z,3.900
2023-11-16T09:32:18.450Z,3.900
2023-11-16T09:34:16.984Z,3.600
2023-11-16T09:35:23.179Z,3.200
2023-11-16T09:36:18.585Z,3.300
2023-11-16T09:37:17.345Z,3.400
2023-11-16T09:40:17.840Z,3.600
2023-11-16T09:41:17.091Z,3.900
2023-11-16T09:42:17.283Z,3.900
2023-11-16T09:45:17.247Z,3.300
2023-11-16T09:46:17.361Z,3.600
2023-11-16T09:47:17.099Z,3.700
2023-11-16T09:49:21.305Z,3.500
2023-11-16T09:50:16.828Z,3.300
2023-11-16T09:51:17.470Z,3.800
2023-11-16T09:52:17.206Z,3.300
2023-11-16T09:53:16.868Z,3.400
2023-11-16T09:54:17.674Z,3.600
2023-11-16T09:55:17.332Z,3.400
2023-11-16T09:56:17.965Z,3.700
2023-11-16T09:58:17.674Z,3.600
2023-11-16T09:59:17.249Z,3.300
2023-11-16T10:01:17.258Z,3.600
2023-11-16T10:02:17.312Z,3.000
2023-11-16T10:03:17.340Z,2.800
2023-11-16T10:04:18.016Z,2.800
2023-11-16T10:05:18.548Z,2.900
2023-11-16T10:06:17.253Z,3.500
2023-11-16T10:09:17.077Z,3.100
2023-11-16T10:10:16.640Z,3.200
2023-11-16T10:11:17.178Z,3.100
2023-11-16T10:12:16.822Z,3.300
2023-11-16T10:13:17.469Z,3.200
2023-11-16T10:14:16.998Z,3.300
2023-11-16T10:15:17.673Z,3.000
2023-11-16T10:16:17.557Z,2.800
2023-11-16T10:17:17.262Z,3.000
2023-11-16T10:18:16.966Z,3.300
2023-11-16T10:20:17.131Z,3.000
2023-11-16T10:21:16.689Z,2.800
2023-11-16T10:22:17.496Z,3.500
2023-11-16T10:23:17.069Z,2.800
2023-11-16T10:24:16.738Z,2.900
2023-11-16T10:25:17.476Z,2.700
2023-11-16T10:26:17.050Z,3.200
2023-11-16T10:27:16.611Z,3.100
2023-11-16T10:28:17.287Z,2.700
2023-11-16T10:29:16.802Z,2.700
2023-11-16T10:30:17.502Z,2.400
2023-11-16T10:31:17.436Z,2.700
2023-11-16T10:32:17.023Z,3.400
2023-11-16T10:33:16.652Z,2.900
2023-11-16T10:35:16.819Z,3.100
2023-11-16T10:36:17.498Z,2.900
2023-11-16T10:37:17.164Z,3.000
2023-11-16T10:38:16.640Z,3.100
2023-11-16T10:39:17.323Z,2.900
2023-11-16T10:40:17.011Z,3.200
2023-11-16T10:41:17.550Z,3.300
2023-11-16T10:42:17.113Z,3.400
2023-11-16T10:43:16.694Z,3.100
2023-11-16T10:44:17.402Z,3.200
2023-11-16T10:46:18.459Z,2.900
2023-11-16T10:48:17.330Z,2.800
2023-11-16T10:49:17.327Z,2.800
2023-11-16T10:51:17.430Z,2.900
2023-11-16T10:52:17.006Z,3.100
2023-11-16T10:53:17.634Z,2.600
2023-11-16T10:54:17.286Z,3.000
2023-11-16T10:55:17.077Z,2.800
2023-11-16T10:56:16.699Z,2.700
2023-11-16T10:57:17.359Z,2.900
2023-11-16T10:58:16.868Z,2.600
2023-11-16T10:59:17.423Z,3.000
2023-11-16T11:00:17.008Z,3.100
2023-11-16T11:01:21.804Z,3.000
2023-11-16T11:04:21.191Z,3.100
2023-11-16T11:05:17.228Z,2.500
2023-11-16T11:07:17.156Z,2.800
2023-11-16T11:08:16.876Z,2.900
2023-11-16T11:09:17.423Z,3.000
2023-11-16T11:10:16.971Z,3.000
2023-11-16T11:11:17.524Z,3.100
2023-11-16T11:12:17.712Z,2.600
2023-11-16T11:14:16.991Z,2.400
2023-11-16T11:15:19.098Z,2.800
2023-11-16T11:16:17.111Z,2.500
2023-11-16T11:19:17.377Z,2.400
2023-11-16T11:20:16.972Z,2.400
2023-11-16T11:21:17.504Z,2.300
2023-11-16T11:22:17.367Z,2.300
2023-11-16T11:23:16.979Z,2.300
2023-11-16T11:24:18.000Z,2.800
2023-11-16T11:25:17.621Z,2.400
2023-11-16T11:26:17.219Z,2.900
2023-11-16T11:27:16.768Z,2.900
2023-11-16T11:28:17.409Z,3.200
2023-11-16T11:29:17.145Z,3.000
2023-11-16T11:30:16.697Z,2.800
2023-11-16T11:31:18.052Z,3.100
2023-11-16T11:32:20.249Z,3.200
2023-11-16T11:33:21.252Z,2.700
2023-11-16T11:34:17.191Z,2.900
2023-11-16T11:36:17.701Z,2.800
2023-11-16T11:37:22.177Z,2.800
2023-11-16T11:41:17.485Z,2.600
2023-11-16T11:42:17.016Z,2.400
2023-11-16T11:43:16.587Z,2.300
2023-11-16T11:44:20.482Z,3.200
2023-11-16T11:45:17.094Z,3.500
2023-11-16T11:46:17.170Z,2.900
2023-11-16T11:47:16.872Z,3.200
2023-11-16T11:48:17.626Z,2.900
2023-11-16T11:49:17.272Z,3.400
2023-11-16T11:50:20.178Z,2.800
2023-11-16T11:51:16.634Z,3.500
2023-11-16T11:52:16.881Z,3.400
2023-11-16T11:53:17.525Z,3.400
2023-11-16T11:54:17.165Z,2.900
2023-11-16T11:55:16.961Z,5.400
2023-11-16T11:56:16.714Z,6.000
2023-11-16T11:57:27.956Z,6.500
2023-11-16T11:59:17.284Z,4.800
2023-11-16T12:00:21.027Z,3.700
2023-11-16T12:01:16.555Z,3.600
2023-11-16T12:02:17.281Z,3.300
2023-11-16T12:03:17.513Z,3.600
2023-11-16T12:04:27.628Z,3.800
2023-11-16T12:05:19.690Z,3.200
2023-11-16T12:07:17.096Z,4.400
2023-11-16T12:08:16.653Z,6.300
2023-11-16T12:09:17.321Z,5.900
2023-11-16T12:10:16.920Z,4.200
2023-11-16T12:11:21.038Z,3.900
2023-11-16T12:12:16.671Z,3.300
2023-11-16T12:13:17.699Z,4.200
2023-11-16T12:14:16.586Z,3.100
2023-11-16T12:15:17.157Z,5.700
2023-11-16T12:16:17.483Z,4.300
2023-11-16T12:18:21.860Z,4.400
2023-11-16T12:20:17.144Z,4.500
2023-11-16T12:21:16.731Z,3.300
2023-11-16T12:22:17.564Z,3.400
2023-11-16T12:23:17.458Z,3.400
2023-11-16T12:24:18.198Z,3.600
2023-11-16T12:25:16.850Z,3.500
2023-11-16T12:26:17.402Z,3.300
2023-11-16T12:27:16.998Z,3.400
2023-11-16T12:28:16.647Z,3.800
2023-11-16T12:29:17.257Z,3.100
2023-11-16T12:30:20.066Z,3.600
2023-11-16T12:31:17.092Z,3.100
2023-11-16T12:32:16.788Z,3.300
2023-11-16T12:33:17.733Z,3.300
2023-11-16T12:35:17.021Z,3.900
2023-11-16T12:36:19.498Z,2.800
2023-11-16T12:37:17.125Z,3.600
2023-11-16T12:38:16.689Z,2.800
2023-11-16T12:39:17.249Z,3.200
2023-11-16T12:40:16.727Z,3.000
2023-11-16T12:41:17.504Z,3.100
2023-11-16T12:42:16.667Z,2.900
2023-11-16T12:43:17.486Z,3.200
2023-11-16T12:44:17.030Z,3.100
2023-11-16T12:46:17.741Z,3.000
2023-11-16T12:50:17.526Z,2.600
2023-11-16T12:51:17.025Z,2.800
2023-11-16T12:52:16.946Z,2.600
2023-11-16T12:53:21.821Z,2.700
2023-11-16T12:54:17.342Z,2.700
2023-11-16T12:56:17.076Z,3.100
2023-11-16T12:57:16.731Z,2.900
2023-11-16T12:58:17.293Z,2.900
2023-11-16T12:59:20.469Z,3.400
2023-11-16T13:00:16.990Z,2.900
2023-11-16T13:01:17.962Z,3.000
2023-11-16T13:04:17.696Z,3.100
2023-11-16T13:05:23.014Z,3.000
2023-11-16T13:08:17.375Z,3.100
2023-11-16T13:09:16.973Z,3.300
2023-11-16T13:10:17.021Z,3.200
2023-11-16T13:11:18.800Z,3.500
2023-11-16T13:12:27.281Z,4.000
2023-11-16T13:13:16.893Z,3.200
2023-11-16T13:14:17.425Z,3.400
2023-11-16T13:15:17.020Z,3.500
2023-11-16T13:16:17.445Z,3.400
2023-11-16T13:17:17.297Z,3.300
2023-11-16T13:18:16.918Z,3.300
2023-11-16T13:19:17.650Z,3.600
2023-11-16T13:20:17.211Z,4.100
2023-11-16T13:21:17.231Z,3.200
2023-11-16T13:22:16.777Z,3.400
2023-11-16T13:23:21.697Z,3.400
2023-11-16T13:24:17.265Z,4.200
2023-11-16T13:27:17.018Z,3.800
2023-11-16T13:28:17.904Z,3.300
2023-11-16T13:29:19.570Z,3.400
2023-11-16T13:30:18.459Z,2.600
2023-11-16T13:31:17.899Z,3.400
2023-11-16T13:33:17.378Z,3.100
2023-11-16T13:34:17.201Z,2.700
2023-11-16T13:35:20.478Z,3.100
2023-11-16T13:38:17.172Z,2.600
2023-11-16T13:39:16.720Z,2.900
2023-11-16T13:40:17.978Z,2.900
2023-11-16T13:41:19.648Z,3.200
2023-11-16T13:42:17.108Z,2.700
2023-11-16T13:43:16.868Z,3.500
2023-11-16T13:44:17.498Z,2.700
2023-11-16T13:46:17.106Z,2.800
2023-11-16T13:47:16.941Z,3.000
2023-11-16T13:48:17.771Z,3.400
2023-11-16T13:49:17.341Z,2.800
2023-11-16T13:50:16.861Z,2.900
2023-11-16T13:51:17.418Z,3.000
2023-11-16T13:52:16.989Z,3.500
2023-11-16T13:53:17.569Z,2.900
2023-11-16T13:54:17.160Z,3.200
2023-11-16T13:55:16.656Z,3.400
2023-11-16T13:56:17.364Z,3.300
2023-11-16T13:57:16.833Z,2.900
2023-11-16T13:59:17.181Z,3.200
2023-11-16T14:00:16.798Z,3.100
2023-11-16T14:01:17.536Z,3.200
2023-11-16T14:02:17.422Z,2.900
2023-11-16T14:03:17.795Z,3.500
2023-11-16T14:04:18.353Z,3.400
2023-11-16T14:05:21.760Z,2.900
2023-11-16T14:06:17.232Z,3.300
2023-11-16T14:09:17.562Z,3.000
2023-11-16T14:10:28.425Z,3.300
2023-11-16T14:14:17.010Z,3.600
2023-11-16T14:15:16.810Z,3.400
2023-11-16T14:16:18.470Z,3.000
2023-11-16T14:17:17.445Z,3.700
2023-11-16T14:18:17.176Z,3.600
2023-11-16T14:19:17.212Z,4.700
2023-11-16T14:20:16.804Z,3.600
2023-11-16T14:21:17.356Z,3.900
2023-11-16T14:22:16.867Z,4.100
2023-11-16T14:23:24.328Z,3.200
2023-11-16T14:24:33.444Z,3.700
2023-11-16T14:27:17.403Z,3.500
2023-11-16T14:28:16.974Z,3.600
2023-11-16T14:29:21.681Z,4.000
2023-11-16T14:30:17.382Z,4.300
2023-11-16T14:31:17.490Z,3.400
2023-11-16T14:32:17.142Z,3.800
2023-11-16T14:34:17.740Z,3.600
2023-11-16T14:35:28.860Z,3.800
2023-11-16T14:36:17.395Z,4.400
2023-11-16T14:38:16.558Z,3.600
2023-11-16T14:39:17.082Z,3.400
2023-11-16T14:40:16.742Z,3.500
2023-11-16T14:41:17.294Z,4.000
2023-11-16T14:42:16.819Z,3.600
2023-11-16T14:43:17.535Z,3.700
2023-11-16T14:44:17.154Z,3.300
2023-11-16T14:45:16.567Z,4.100
2023-11-16T14:46:17.669Z,10.100
2023-11-16T14:47:39.936Z,7.800
2023-11-16T14:49:17.225Z,6.600
2023-11-16T14:50:17.048Z,5.900
2023-11-16T14:51:19.508Z,5.200
2023-11-16T14:52:17.233Z,5.000
2023-11-16T14:53:28.440Z,5.100
2023-11-16T14:55:17.280Z,4.900
2023-11-16T14:56:16.972Z,5.500
2023-11-16T14:57:23.561Z,4.900
2023-11-16T14:59:16.685Z,5.000
2023-11-16T15:00:17.261Z,6.400
2023-11-16T15:01:17.180Z,5.600
2023-11-16T15:02:16.851Z,6.600
2023-11-16T15:03:18.042Z,6.800